sensor_id;sensor_type;location;lat;lon;timestamp;temperature;humidity
41344;DHT22;27089;50.022;7.604;2023-03-04T00:02:24;-0.70;99.90
41344;DHT22;27089;50.022;7.604;2023-03-04T00:04:52;-0.70;99.90
41344;DHT22;27089;50.022;7.604;2023-03-04T00:07:19;-0.80;99.90
41344;DHT22;27089;50.022;7.604;2023-03-04T00:09:46;-0.80;99.90
41344;DHT22;27089;50.022;7.604;2023-03-04T00:12:13;-0.90;99.90
41344;DHT22;27089;50.022;7.604;2023-03-04T00:14:40;-1.00;99.90
41344;DHT22;27089;50.022;7.604;2023-03-04T00:17:07;-1.00;99.90
41344;DHT22;27089;50.022;7.604;2023-03-04T00:19:34;-1.10;99.90
41344;DHT22;27089;50.022;7.604;2023-03-04T00:22:03;-1.10;99.90
41344;DHT22;27089;50.022;7.604;2023-03-04T00:24:30;-1.10;99.90
41344;DHT22;27089;50.022;7.604;2023-03-04T00:26:57;-1.20;99.90
41344;DHT22;27089;50.022;7.604;2023-03-04T00:29:24;-1.20;99.90
41344;DHT22;27089;50.022;7.604;2023-03-04T00:31:51;-1.20;99.90
41344;DHT22;27089;50.022;7.604;2023-03-04T00:34:18;-1.30;99.90
41344;DHT22;27089;50.022;7.604;2023-03-04T00:36:45;-1.30;99.90
41344;DHT22;27089;50.022;7.604;2023-03-04T00:39:14;-1.30;99.90
41344;DHT22;27089;50.022;7.604;2023-03-04T00:41:41;-1.40;99.90
41344;DHT22;27089;50.022;7.604;2023-03-04T00:44:08;-1.40;99.90
41344;DHT22;27089;50.022;7.604;2023-03-04T00:46:35;-1.40;99.90
41344;DHT22;27089;50.022;7.604;2023-03-04T00:49:02;-1.40;99.90
41344;DHT22;27089;50.022;7.604;2023-03-04T00:51:29;-1.40;99.90
41344;DHT22;27089;50.022;7.604;2023-03-04T00:53:56;-1.40;99.90
41344;DHT22;27089;50.022;7.604;2023-03-04T00:56:24;-1.40;99.90
41344;DHT22;27089;50.022;7.604;2023-03-04T00:58:51;-1.50;99.90
41344;DHT22;27089;50.022;7.604;2023-03-04T01:01:18;-1.40;99.90
41344;DHT22;27089;50.022;7.604;2023-03-04T01:03:45;-1.50;99.90
41344;DHT22;27089;50.022;7.604;2023-03-04T01:06:12;-1.50;99.90
41344;DHT22;27089;50.022;7.604;2023-03-04T01:08:39;-1.50;99.90
41344;DHT22;27089;50.022;7.604;2023-03-04T01:11:06;-1.50;99.90
41344;DHT22;27089;50.022;7.604;2023-03-04T01:13:35;-1.50;99.90
41344;DHT22;27089;50.022;7.604;2023-03-04T01:16:02;-1.50;99.90
41344;DHT22;27089;50.022;7.604;2023-03-04T01:18:30;-1.50;99.90
41344;DHT22;27089;50.022;7.604;2023-03-04T01:20:57;-1.50;99.90
41344;DHT22;27089;50.022;7.604;2023-03-04T01:23:24;-1.50;99.90
41344;DHT22;27089;50.022;7.604;2023-03-04T01:25:51;-1.50;99.90
41344;DHT22;27089;50.022;7.604;2023-03-04T01:28:18;-1.50;99.90
41344;DHT22;27089;50.022;7.604;2023-03-04T01:30:47;-1.40;99.90
41344;DHT22;27089;50.022;7.604;2023-03-04T01:33:14;-1.40;99.90
41344;DHT22;27089;50.022;7.604;2023-03-04T01:35:41;-1.30;99.90
41344;DHT22;27089;50.022;7.604;2023-03-04T01:38:08;-1.20;99.90
41344;DHT22;27089;50.022;7.604;2023-03-04T01:40:36;-1.10;99.90
41344;DHT22;27089;50.022;7.604;2023-03-04T01:43:03;-1.00;99.90
41344;DHT22;27089;50.022;7.604;2023-03-04T01:45:31;-0.90;99.90
41344;DHT22;27089;50.022;7.604;2023-03-04T01:48:00;-0.80;99.90
41344;DHT22;27089;50.022;7.604;2023-03-04T01:50:31;-0.70;99.90
41344;DHT22;27089;50.022;7.604;2023-03-04T01:52:58;-0.60;99.90
41344;DHT22;27089;50.022;7.604;2023-03-04T01:55:30;-0.50;99.90
41344;DHT22;27089;50.022;7.604;2023-03-04T01:57:57;-0.40;99.90
41344;DHT22;27089;50.022;7.604;2023-03-04T02:00:30;-0.40;99.90
41344;DHT22;27089;50.022;7.604;2023-03-04T02:03:01;-0.40;99.90
41344;DHT22;27089;50.022;7.604;2023-03-04T02:05:32;-0.30;99.90
41344;DHT22;27089;50.022;7.604;2023-03-04T02:08:00;-0.30;99.90
41344;DHT22;27089;50.022;7.604;2023-03-04T02:10:28;-0.20;99.90
41344;DHT22;27089;50.022;7.604;2023-03-04T02:12:56;-0.20;99.90
41344;DHT22;27089;50.022;7.604;2023-03-04T02:15:24;-0.20;99.90
41344;DHT22;27089;50.022;7.604;2023-03-04T02:17:51;-0.20;99.90
41344;DHT22;27089;50.022;7.604;2023-03-04T02:20:29;-0.10;99.90
41344;DHT22;27089;50.022;7.604;2023-03-04T02:23:02;-0.10;99.90
41344;DHT22;27089;50.022;7.604;2023-03-04T02:25:34;-0.20;99.90
41344;DHT22;27089;50.022;7.604;2023-03-04T02:28:04;-0.20;99.90
41344;DHT22;27089;50.022;7.604;2023-03-04T02:30:31;-0.10;99.90
41344;DHT22;27089;50.022;7.604;2023-03-04T02:32:59;-0.10;99.90
41344;DHT22;27089;50.022;7.604;2023-03-04T02:35:27;-0.10;99.90
41344;DHT22;27089;50.022;7.604;2023-03-04T02:37:54;0.00;99.90
41344;DHT22;27089;50.022;7.604;2023-03-04T02:40:24;0.00;99.90
41344;DHT22;27089;50.022;7.604;2023-03-04T02:42:52;0.10;99.90
41344;DHT22;27089;50.022;7.604;2023-03-04T02:45:40;0.10;99.90
41344;DHT22;27089;50.022;7.604;2023-03-04T02:48:09;0.10;99.90
41344;DHT22;27089;50.022;7.604;2023-03-04T02:50:40;0.20;99.90
41344;DHT22;27089;50.022;7.604;2023-03-04T02:53:08;0.20;99.90
41344;DHT22;27089;50.022;7.604;2023-03-04T02:55:35;0.20;99.90
41344;DHT22;27089;50.022;7.604;2023-03-04T02:58:02;0.20;99.90
41344;DHT22;27089;50.022;7.604;2023-03-04T03:00:29;0.30;99.90
41344;DHT22;27089;50.022;7.604;2023-03-04T03:02:58;0.30;99.90
41344;DHT22;27089;50.022;7.604;2023-03-04T03:05:27;0.30;99.90
41344;DHT22;27089;50.022;7.604;2023-03-04T03:07:55;0.40;99.90
41344;DHT22;27089;50.022;7.604;2023-03-04T03:10:22;0.40;99.90
41344;DHT22;27089;50.022;7.604;2023-03-04T03:12:49;0.40;99.90
41344;DHT22;27089;50.022;7.604;2023-03-04T03:15:16;0.40;99.90
41344;DHT22;27089;50.022;7.604;2023-03-04T03:17:44;0.40;99.90
41344;DHT22;27089;50.022;7.604;2023-03-04T03:20:13;0.50;99.90
41344;DHT22;27089;50.022;7.604;2023-03-04T03:22:41;0.50;99.90
41344;DHT22;27089;50.022;7.604;2023-03-04T03:25:09;0.50;99.90
41344;DHT22;27089;50.022;7.604;2023-03-04T03:27:37;0.60;99.90
41344;DHT22;27089;50.022;7.604;2023-03-04T03:30:04;0.60;99.90
41344;DHT22;27089;50.022;7.604;2023-03-04T03:32:32;0.60;99.90
41344;DHT22;27089;50.022;7.604;2023-03-04T03:34:59;0.60;99.90
41344;DHT22;27089;50.022;7.604;2023-03-04T03:37:27;0.60;99.90
41344;DHT22;27089;50.022;7.604;2023-03-04T03:39:54;0.60;99.90
41344;DHT22;27089;50.022;7.604;2023-03-04T03:42:21;0.60;99.90
41344;DHT22;27089;50.022;7.604;2023-03-04T03:44:48;0.60;99.90
41344;DHT22;27089;50.022;7.604;2023-03-04T03:47:15;0.60;99.90
41344;DHT22;27089;50.022;7.604;2023-03-04T03:49:42;0.70;99.90
41344;DHT22;27089;50.022;7.604;2023-03-04T03:52:09;0.70;99.90
41344;DHT22;27089;50.022;7.604;2023-03-04T03:54:37;0.70;99.90
41344;DHT22;27089;50.022;7.604;2023-03-04T03:57:04;0.70;99.90
41344;DHT22;27089;50.022;7.604;2023-03-04T03:59:31;0.80;99.90
41344;DHT22;27089;50.022;7.604;2023-03-04T04:01:58;0.80;99.90
41344;DHT22;27089;50.022;7.604;2023-03-04T04:04:25;0.80;99.90
41344;DHT22;27089;50.022;7.604;2023-03-04T04:06:52;0.90;99.90
41344;DHT22;27089;50.022;7.604;2023-03-04T04:09:19;1.10;99.90
41344;DHT22;27089;50.022;7.604;2023-03-04T04:11:47;1.20;99.90
41344;DHT22;27089;50.022;7.604;2023-03-04T04:14:14;1.30;99.90
41344;DHT22;27089;50.022;7.604;2023-03-04T04:16:42;1.40;99.90
41344;DHT22;27089;50.022;7.604;2023-03-04T04:19:15;1.40;99.90
41344;DHT22;27089;50.022;7.604;2023-03-04T04:21:42;1.40;99.90
41344;DHT22;27089;50.022;7.604;2023-03-04T04:24:09;1.40;99.90
41344;DHT22;27089;50.022;7.604;2023-03-04T04:26:36;1.40;99.90
41344;DHT22;27089;50.022;7.604;2023-03-04T04:29:04;1.50;99.90
41344;DHT22;27089;50.022;7.604;2023-03-04T04:31:31;1.60;99.90
41344;DHT22;27089;50.022;7.604;2023-03-04T04:33:58;1.60;99.90
41344;DHT22;27089;50.022;7.604;2023-03-04T04:36:25;1.60;99.90
41344;DHT22;27089;50.022;7.604;2023-03-04T04:38:52;1.60;99.90
41344;DHT22;27089;50.022;7.604;2023-03-04T04:41:22;1.60;99.90
41344;DHT22;27089;50.022;7.604;2023-03-04T04:43:50;1.60;99.90
41344;DHT22;27089;50.022;7.604;2023-03-04T04:46:19;1.60;99.90
41344;DHT22;27089;50.022;7.604;2023-03-04T04:48:46;1.60;99.90
41344;DHT22;27089;50.022;7.604;2023-03-04T04:51:13;1.60;99.90
41344;DHT22;27089;50.022;7.604;2023-03-04T04:53:40;1.60;99.90
41344;DHT22;27089;50.022;7.604;2023-03-04T04:56:08;1.60;99.90
41344;DHT22;27089;50.022;7.604;2023-03-04T04:58:36;1.70;99.90
41344;DHT22;27089;50.022;7.604;2023-03-04T05:01:03;1.60;99.90
41344;DHT22;27089;50.022;7.604;2023-03-04T05:03:32;1.60;99.90
41344;DHT22;27089;50.022;7.604;2023-03-04T05:05:59;1.60;99.90
41344;DHT22;27089;50.022;7.604;2023-03-04T05:08:27;1.70;99.90
41344;DHT22;27089;50.022;7.604;2023-03-04T05:10:54;1.60;99.90
41344;DHT22;27089;50.022;7.604;2023-03-04T05:13:22;1.70;99.90
41344;DHT22;27089;50.022;7.604;2023-03-04T05:15:51;1.70;99.90
41344;DHT22;27089;50.022;7.604;2023-03-04T05:18:18;1.70;99.90
41344;DHT22;27089;50.022;7.604;2023-03-04T05:20:49;1.70;99.90
41344;DHT22;27089;50.022;7.604;2023-03-04T05:23:17;1.70;99.90
41344;DHT22;27089;50.022;7.604;2023-03-04T05:25:44;1.70;99.90
41344;DHT22;27089;50.022;7.604;2023-03-04T05:28:11;1.70;99.90
41344;DHT22;27089;50.022;7.604;2023-03-04T05:30:39;1.70;99.90
41344;DHT22;27089;50.022;7.604;2023-03-04T05:33:06;1.70;99.90
41344;DHT22;27089;50.022;7.604;2023-03-04T05:35:34;1.70;99.90
41344;DHT22;27089;50.022;7.604;2023-03-04T05:38:03;1.80;99.90
41344;DHT22;27089;50.022;7.604;2023-03-04T05:40:30;1.80;99.90
41344;DHT22;27089;50.022;7.604;2023-03-04T05:42:57;1.80;99.90
41344;DHT22;27089;50.022;7.604;2023-03-04T05:45:25;1.80;99.90
41344;DHT22;27089;50.022;7.604;2023-03-04T05:47:52;1.80;99.90
41344;DHT22;27089;50.022;7.604;2023-03-04T05:50:20;1.80;99.90
41344;DHT22;27089;50.022;7.604;2023-03-04T05:52:47;1.80;99.90
41344;DHT22;27089;50.022;7.604;2023-03-04T05:55:17;1.80;99.90
41344;DHT22;27089;50.022;7.604;2023-03-04T05:57:44;1.80;99.90
41344;DHT22;27089;50.022;7.604;2023-03-04T06:00:13;1.80;99.90
41344;DHT22;27089;50.022;7.604;2023-03-04T06:02:41;1.80;99.90
41344;DHT22;27089;50.022;7.604;2023-03-04T06:05:12;1.90;99.90
41344;DHT22;27089;50.022;7.604;2023-03-04T06:07:39;1.80;99.90
41344;DHT22;27089;50.022;7.604;2023-03-04T06:10:10;1.90;99.90
41344;DHT22;27089;50.022;7.604;2023-03-04T06:12:39;1.90;99.90
41344;DHT22;27089;50.022;7.604;2023-03-04T06:15:06;1.90;99.90
41344;DHT22;27089;50.022;7.604;2023-03-04T06:17:34;2.00;99.90
41344;DHT22;27089;50.022;7.604;2023-03-04T06:20:02;2.00;99.90
41344;DHT22;27089;50.022;7.604;2023-03-04T06:22:30;2.00;99.90
41344;DHT22;27089;50.022;7.604;2023-03-04T06:24:57;2.10;99.90
41344;DHT22;27089;50.022;7.604;2023-03-04T06:27:24;2.10;99.90
41344;DHT22;27089;50.022;7.604;2023-03-04T06:29:52;2.10;99.90
41344;DHT22;27089;50.022;7.604;2023-03-04T06:32:19;2.10;99.90
41344;DHT22;27089;50.022;7.604;2023-03-04T06:34:46;2.20;99.90
41344;DHT22;27089;50.022;7.604;2023-03-04T06:37:13;2.20;99.90
41344;DHT22;27089;50.022;7.604;2023-03-04T06:39:40;2.20;99.90
41344;DHT22;27089;50.022;7.604;2023-03-04T06:42:07;2.20;99.90
41344;DHT22;27089;50.022;7.604;2023-03-04T06:44:34;2.20;99.90
41344;DHT22;27089;50.022;7.604;2023-03-04T06:47:02;2.30;99.90
41344;DHT22;27089;50.022;7.604;2023-03-04T06:49:29;2.30;99.90
41344;DHT22;27089;50.022;7.604;2023-03-04T06:51:56;2.30;99.90
41344;DHT22;27089;50.022;7.604;2023-03-04T06:54:23;2.30;99.90
41344;DHT22;27089;50.022;7.604;2023-03-04T06:56:50;2.30;99.90
41344;DHT22;27089;50.022;7.604;2023-03-04T06:59:17;2.40;99.90
41344;DHT22;27089;50.022;7.604;2023-03-04T07:01:44;2.40;99.90
41344;DHT22;27089;50.022;7.604;2023-03-04T07:04:13;2.40;99.90
41344;DHT22;27089;50.022;7.604;2023-03-04T07:06:40;2.40;99.90
41344;DHT22;27089;50.022;7.604;2023-03-04T07:09:07;2.40;99.90
41344;DHT22;27089;50.022;7.604;2023-03-04T07:11:34;2.40;99.90
41344;DHT22;27089;50.022;7.604;2023-03-04T07:14:01;2.40;99.90
41344;DHT22;27089;50.022;7.604;2023-03-04T07:16:28;2.40;99.90
41344;DHT22;27089;50.022;7.604;2023-03-04T07:18:55;2.40;99.90
41344;DHT22;27089;50.022;7.604;2023-03-04T07:21:23;2.40;99.90
41344;DHT22;27089;50.022;7.604;2023-03-04T07:23:50;2.40;99.90
41344;DHT22;27089;50.022;7.604;2023-03-04T07:26:17;2.40;99.90
41344;DHT22;27089;50.022;7.604;2023-03-04T07:28:44;2.50;99.90
41344;DHT22;27089;50.022;7.604;2023-03-04T07:31:16;2.50;99.90
41344;DHT22;27089;50.022;7.604;2023-03-04T07:33:44;2.60;99.90
41344;DHT22;27089;50.022;7.604;2023-03-04T07:36:11;2.60;99.90
41344;DHT22;27089;50.022;7.604;2023-03-04T07:38:43;2.60;99.90
41344;DHT22;27089;50.022;7.604;2023-03-04T07:41:10;2.60;99.90
41344;DHT22;27089;50.022;7.604;2023-03-04T07:43:38;2.60;99.90
41344;DHT22;27089;50.022;7.604;2023-03-04T07:46:05;2.60;99.90
41344;DHT22;27089;50.022;7.604;2023-03-04T07:48:32;2.60;99.90
41344;DHT22;27089;50.022;7.604;2023-03-04T07:51:05;2.60;99.90
41344;DHT22;27089;50.022;7.604;2023-03-04T07:53:33;2.70;99.90
41344;DHT22;27089;50.022;7.604;2023-03-04T07:56:01;2.70;99.90
41344;DHT22;27089;50.022;7.604;2023-03-04T07:58:29;2.70;99.90
41344;DHT22;27089;50.022;7.604;2023-03-04T08:00:57;2.80;99.90
41344;DHT22;27089;50.022;7.604;2023-03-04T08:03:26;2.70;99.90
41344;DHT22;27089;50.022;7.604;2023-03-04T08:05:54;2.80;99.90
41344;DHT22;27089;50.022;7.604;2023-03-04T08:08:21;2.90;99.90
41344;DHT22;27089;50.022;7.604;2023-03-04T08:10:48;2.80;99.90
41344;DHT22;27089;50.022;7.604;2023-03-04T08:13:16;2.80;99.90
41344;DHT22;27089;50.022;7.604;2023-03-04T08:15:43;2.80;99.90
41344;DHT22;27089;50.022;7.604;2023-03-04T08:18:10;2.80;99.90
41344;DHT22;27089;50.022;7.604;2023-03-04T08:20:40;2.80;99.90
41344;DHT22;27089;50.022;7.604;2023-03-04T08:23:08;2.80;99.90
41344;DHT22;27089;50.022;7.604;2023-03-04T08:25:37;2.90;99.90
41344;DHT22;27089;50.022;7.604;2023-03-04T08:28:05;2.90;99.90
41344;DHT22;27089;50.022;7.604;2023-03-04T08:30:33;2.90;99.90
41344;DHT22;27089;50.022;7.604;2023-03-04T08:33:01;2.90;99.90
41344;DHT22;27089;50.022;7.604;2023-03-04T08:35:28;2.80;99.90
41344;DHT22;27089;50.022;7.604;2023-03-04T08:37:56;2.90;99.90
41344;DHT22;27089;50.022;7.604;2023-03-04T08:40:23;2.90;99.90
41344;DHT22;27089;50.022;7.604;2023-03-04T08:42:51;3.00;99.90
41344;DHT22;27089;50.022;7.604;2023-03-04T08:45:18;3.00;99.90
41344;DHT22;27089;50.022;7.604;2023-03-04T08:47:47;3.10;99.90
41344;DHT22;27089;50.022;7.604;2023-03-04T08:50:14;3.10;99.90
41344;DHT22;27089;50.022;7.604;2023-03-04T08:52:41;3.10;99.90
41344;DHT22;27089;50.022;7.604;2023-03-04T08:55:08;3.10;99.90
41344;DHT22;27089;50.022;7.604;2023-03-04T08:57:35;3.10;99.90
41344;DHT22;27089;50.022;7.604;2023-03-04T09:00:03;3.10;99.90
41344;DHT22;27089;50.022;7.604;2023-03-04T09:02:30;3.20;99.90
41344;DHT22;27089;50.022;7.604;2023-03-04T09:04:59;3.20;99.90
41344;DHT22;27089;50.022;7.604;2023-03-04T09:07:26;3.30;99.90
41344;DHT22;27089;50.022;7.604;2023-03-04T09:09:53;3.30;99.90
41344;DHT22;27089;50.022;7.604;2023-03-04T09:12:20;3.30;99.90
41344;DHT22;27089;50.022;7.604;2023-03-04T09:14:47;3.30;99.90
41344;DHT22;27089;50.022;7.604;2023-03-04T09:17:14;3.30;99.90
41344;DHT22;27089;50.022;7.604;2023-03-04T09:19:41;3.40;99.90
41344;DHT22;27089;50.022;7.604;2023-03-04T09:22:09;3.30;99.90
41344;DHT22;27089;50.022;7.604;2023-03-04T09:24:36;3.30;99.90
41344;DHT22;27089;50.022;7.604;2023-03-04T09:27:03;3.40;99.90
41344;DHT22;27089;50.022;7.604;2023-03-04T09:29:30;3.40;99.90
41344;DHT22;27089;50.022;7.604;2023-03-04T09:31:57;3.40;99.90
41344;DHT22;27089;50.022;7.604;2023-03-04T09:34:24;3.40;99.90
41344;DHT22;27089;50.022;7.604;2023-03-04T09:36:51;3.40;99.90
41344;DHT22;27089;50.022;7.604;2023-03-04T09:39:19;3.40;99.90
41344;DHT22;27089;50.022;7.604;2023-03-04T09:41:48;3.50;99.90
41344;DHT22;27089;50.022;7.604;2023-03-04T09:44:22;3.50;99.90
41344;DHT22;27089;50.022;7.604;2023-03-04T09:46:50;3.50;99.90
41344;DHT22;27089;50.022;7.604;2023-03-04T09:49:18;3.50;99.90
41344;DHT22;27089;50.022;7.604;2023-03-04T09:51:52;3.50;99.90
41344;DHT22;27089;50.022;7.604;2023-03-04T09:54:30;3.60;99.90
41344;DHT22;27089;50.022;7.604;2023-03-04T09:57:12;3.60;99.90
41344;DHT22;27089;50.022;7.604;2023-03-04T09:59:47;3.70;99.90
41344;DHT22;27089;50.022;7.604;2023-03-04T10:02:21;3.80;99.90
41344;DHT22;27089;50.022;7.604;2023-03-04T10:04:56;3.80;99.90
41344;DHT22;27089;50.022;7.604;2023-03-04T10:07:28;3.80;99.90
41344;DHT22;27089;50.022;7.604;2023-03-04T10:10:02;3.90;99.90
41344;DHT22;27089;50.022;7.604;2023-03-04T10:12:32;3.90;99.90
41344;DHT22;27089;50.022;7.604;2023-03-04T10:15:02;3.90;99.90
41344;DHT22;27089;50.022;7.604;2023-03-04T10:17:33;3.90;99.90
41344;DHT22;27089;50.022;7.604;2023-03-04T10:20:04;4.00;99.90
41344;DHT22;27089;50.022;7.604;2023-03-04T10:22:35;3.90;99.90
41344;DHT22;27089;50.022;7.604;2023-03-04T10:25:15;3.90;99.90
41344;DHT22;27089;50.022;7.604;2023-03-04T10:27:48;4.00;99.90
41344;DHT22;27089;50.022;7.604;2023-03-04T10:30:22;4.00;99.90
41344;DHT22;27089;50.022;7.604;2023-03-04T10:32:53;4.10;99.90
41344;DHT22;27089;50.022;7.604;2023-03-04T10:35:24;4.10;99.90
41344;DHT22;27089;50.022;7.604;2023-03-04T10:37:52;4.10;99.90
41344;DHT22;27089;50.022;7.604;2023-03-04T10:40:23;4.10;99.90
41344;DHT22;27089;50.022;7.604;2023-03-04T10:42:50;4.00;99.90
41344;DHT22;27089;50.022;7.604;2023-03-04T10:45:22;4.10;99.90
41344;DHT22;27089;50.022;7.604;2023-03-04T10:47:53;4.10;99.90
41344;DHT22;27089;50.022;7.604;2023-03-04T10:50:23;4.10;99.90
41344;DHT22;27089;50.022;7.604;2023-03-04T10:52:51;4.20;99.90
41344;DHT22;27089;50.022;7.604;2023-03-04T10:55:24;4.30;99.90
41344;DHT22;27089;50.022;7.604;2023-03-04T10:57:54;4.30;99.90
41344;DHT22;27089;50.022;7.604;2023-03-04T11:00:27;4.30;99.90
41344;DHT22;27089;50.022;7.604;2023-03-04T11:06:04;4.40;99.90
41344;DHT22;27089;50.022;7.604;2023-03-04T11:08:32;4.40;99.90
41344;DHT22;27089;50.022;7.604;2023-03-04T11:11:01;4.40;99.90
41344;DHT22;27089;50.022;7.604;2023-03-04T11:13:29;4.40;99.90
41344;DHT22;27089;50.022;7.604;2023-03-04T11:16:00;4.40;99.90
41344;DHT22;27089;50.022;7.604;2023-03-04T11:18:33;4.50;99.90
41344;DHT22;27089;50.022;7.604;2023-03-04T11:21:06;4.50;99.90
41344;DHT22;27089;50.022;7.604;2023-03-04T11:23:38;4.50;99.90
41344;DHT22;27089;50.022;7.604;2023-03-04T11:26:11;4.60;99.90
41344;DHT22;27089;50.022;7.604;2023-03-04T11:28:43;4.60;99.90
41344;DHT22;27089;50.022;7.604;2023-03-04T11:31:15;4.50;99.90
41344;DHT22;27089;50.022;7.604;2023-03-04T11:33:52;4.50;99.90
41344;DHT22;27089;50.022;7.604;2023-03-04T11:36:28;4.50;99.90
41344;DHT22;27089;50.022;7.604;2023-03-04T11:38:59;4.40;99.90
41344;DHT22;27089;50.022;7.604;2023-03-04T11:41:32;4.40;99.90
41344;DHT22;27089;50.022;7.604;2023-03-04T11:44:00;4.40;99.90
41344;DHT22;27089;50.022;7.604;2023-03-04T11:46:53;4.40;99.90
41344;DHT22;27089;50.022;7.604;2023-03-04T11:52:29;4.50;99.90
41344;DHT22;27089;50.022;7.604;2023-03-04T11:57:51;4.60;99.90
41344;DHT22;27089;50.022;7.604;2023-03-04T12:00:30;4.60;99.90
41344;DHT22;27089;50.022;7.604;2023-03-04T12:03:26;4.60;99.90
41344;DHT22;27089;50.022;7.604;2023-03-04T12:06:06;4.50;99.90
41344;DHT22;27089;50.022;7.604;2023-03-04T12:08:57;4.60;99.90
41344;DHT22;27089;50.022;7.604;2023-03-04T12:11:33;4.60;99.90
41344;DHT22;27089;50.022;7.604;2023-03-04T12:14:23;4.70;99.90
41344;DHT22;27089;50.022;7.604;2023-03-04T12:17:13;4.80;99.90
41344;DHT22;27089;50.022;7.604;2023-03-04T12:20:13;4.80;99.90
41344;DHT22;27089;50.022;7.604;2023-03-04T12:22:43;4.90;99.90
41344;DHT22;27089;50.022;7.604;2023-03-04T12:25:46;5.10;99.90
41344;DHT22;27089;50.022;7.604;2023-03-04T12:28:23;5.20;99.90
41344;DHT22;27089;50.022;7.604;2023-03-04T12:31:06;5.30;99.90
41344;DHT22;27089;50.022;7.604;2023-03-04T12:33:50;5.40;99.90
41344;DHT22;27089;50.022;7.604;2023-03-04T12:36:27;5.70;99.90
41344;DHT22;27089;50.022;7.604;2023-03-04T12:38:59;5.90;99.90
41344;DHT22;27089;50.022;7.604;2023-03-04T12:41:38;5.90;99.90
41344;DHT22;27089;50.022;7.604;2023-03-04T12:44:15;6.00;99.90
41344;DHT22;27089;50.022;7.604;2023-03-04T12:47:00;6.10;99.90
41344;DHT22;27089;50.022;7.604;2023-03-04T12:49:50;6.00;99.90
41344;DHT22;27089;50.022;7.604;2023-03-04T12:52:25;5.80;99.90
41344;DHT22;27089;50.022;7.604;2023-03-04T12:54:56;5.70;99.90
41344;DHT22;27089;50.022;7.604;2023-03-04T12:57:25;5.70;99.90
41344;DHT22;27089;50.022;7.604;2023-03-04T12:59:56;5.60;99.90
41344;DHT22;27089;50.022;7.604;2023-03-04T13:02:58;5.60;99.90
41344;DHT22;27089;50.022;7.604;2023-03-04T13:05:54;5.60;99.90
41344;DHT22;27089;50.022;7.604;2023-03-04T13:08:39;5.60;99.90
41344;DHT22;27089;50.022;7.604;2023-03-04T13:11:31;5.40;99.90
41344;DHT22;27089;50.022;7.604;2023-03-04T13:14:03;5.50;99.90
41344;DHT22;27089;50.022;7.604;2023-03-04T13:16:31;5.60;99.90
41344;DHT22;27089;50.022;7.604;2023-03-04T13:19:02;5.60;99.90
41344;DHT22;27089;50.022;7.604;2023-03-04T13:21:30;5.70;99.90
41344;DHT22;27089;50.022;7.604;2023-03-04T13:24:01;5.80;99.90
41344;DHT22;27089;50.022;7.604;2023-03-04T13:26:48;5.90;99.90
41344;DHT22;27089;50.022;7.604;2023-03-04T13:29:33;6.10;99.90
41344;DHT22;27089;50.022;7.604;2023-03-04T13:32:03;6.20;99.90
41344;DHT22;27089;50.022;7.604;2023-03-04T13:34:51;6.30;99.90
41344;DHT22;27089;50.022;7.604;2023-03-04T13:37:32;6.30;99.90
41344;DHT22;27089;50.022;7.604;2023-03-04T13:43:24;6.50;99.90
41344;DHT22;27089;50.022;7.604;2023-03-04T13:45:51;6.50;99.90
41344;DHT22;27089;50.022;7.604;2023-03-04T13:48:29;6.30;99.90
41344;DHT22;27089;50.022;7.604;2023-03-04T13:50:58;6.20;99.90
41344;DHT22;27089;50.022;7.604;2023-03-04T13:53:37;6.20;99.90
41344;DHT22;27089;50.022;7.604;2023-03-04T13:56:11;6.20;99.90
41344;DHT22;27089;50.022;7.604;2023-03-04T13:58:40;6.10;99.90
41344;DHT22;27089;50.022;7.604;2023-03-04T14:01:21;6.00;99.90
41344;DHT22;27089;50.022;7.604;2023-03-04T14:03:49;6.00;99.90
41344;DHT22;27089;50.022;7.604;2023-03-04T14:06:19;6.00;99.90
41344;DHT22;27089;50.022;7.604;2023-03-04T14:08:47;6.00;99.90
41344;DHT22;27089;50.022;7.604;2023-03-04T14:11:18;5.90;99.90
41344;DHT22;27089;50.022;7.604;2023-03-04T14:13:47;5.80;99.90
41344;DHT22;27089;50.022;7.604;2023-03-04T14:16:18;5.80;99.90
41344;DHT22;27089;50.022;7.604;2023-03-04T14:18:58;5.90;99.90
41344;DHT22;27089;50.022;7.604;2023-03-04T14:21:28;6.10;99.90
41344;DHT22;27089;50.022;7.604;2023-03-04T14:24:02;6.10;99.90
41344;DHT22;27089;50.022;7.604;2023-03-04T14:26:30;6.20;99.90
41344;DHT22;27089;50.022;7.604;2023-03-04T14:28:58;6.20;99.90
41344;DHT22;27089;50.022;7.604;2023-03-04T14:31:28;6.20;99.90
41344;DHT22;27089;50.022;7.604;2023-03-04T14:33:58;6.30;99.90
41344;DHT22;27089;50.022;7.604;2023-03-04T14:36:30;6.20;99.90
41344;DHT22;27089;50.022;7.604;2023-03-04T14:38:59;6.20;99.90
41344;DHT22;27089;50.022;7.604;2023-03-04T14:41:31;6.00;99.90
41344;DHT22;27089;50.022;7.604;2023-03-04T14:44:02;6.00;99.90
41344;DHT22;27089;50.022;7.604;2023-03-04T14:46:34;5.90;99.90
41344;DHT22;27089;50.022;7.604;2023-03-04T14:49:05;5.90;99.90
41344;DHT22;27089;50.022;7.604;2023-03-04T14:51:40;5.70;99.90
41344;DHT22;27089;50.022;7.604;2023-03-04T14:57:21;5.70;99.90
41344;DHT22;27089;50.022;7.604;2023-03-04T14:59:51;5.60;99.90
41344;DHT22;27089;50.022;7.604;2023-03-04T15:02:26;5.60;99.90
41344;DHT22;27089;50.022;7.604;2023-03-04T15:04:58;5.70;99.90
41344;DHT22;27089;50.022;7.604;2023-03-04T15:07:32;5.70;99.90
41344;DHT22;27089;50.022;7.604;2023-03-04T15:10:00;5.70;99.90
41344;DHT22;27089;50.022;7.604;2023-03-04T15:12:30;5.70;99.90
41344;DHT22;27089;50.022;7.604;2023-03-04T15:14:59;5.80;99.90
41344;DHT22;27089;50.022;7.604;2023-03-04T15:17:30;5.70;99.90
41344;DHT22;27089;50.022;7.604;2023-03-04T15:20:21;5.70;99.90
41344;DHT22;27089;50.022;7.604;2023-03-04T15:23:00;5.70;99.90
41344;DHT22;27089;50.022;7.604;2023-03-04T15:25:28;5.60;99.90
41344;DHT22;27089;50.022;7.604;2023-03-04T15:27:56;5.60;99.90
41344;DHT22;27089;50.022;7.604;2023-03-04T15:30:25;5.60;99.90
41344;DHT22;27089;50.022;7.604;2023-03-04T15:32:54;5.60;99.90
41344;DHT22;27089;50.022;7.604;2023-03-04T15:35:21;5.60;99.90
41344;DHT22;27089;50.022;7.604;2023-03-04T15:37:50;5.60;99.90
41344;DHT22;27089;50.022;7.604;2023-03-04T15:40:27;5.60;99.90
41344;DHT22;27089;50.022;7.604;2023-03-04T15:42:56;5.60;99.90
41344;DHT22;27089;50.022;7.604;2023-03-04T15:45:28;5.60;99.90
41344;DHT22;27089;50.022;7.604;2023-03-04T15:48:00;5.60;99.90
41344;DHT22;27089;50.022;7.604;2023-03-04T15:50:29;5.60;99.90
41344;DHT22;27089;50.022;7.604;2023-03-04T15:52:58;5.70;99.90
41344;DHT22;27089;50.022;7.604;2023-03-04T15:55:29;5.70;99.90
41344;DHT22;27089;50.022;7.604;2023-03-04T15:57:58;5.80;99.90
41344;DHT22;27089;50.022;7.604;2023-03-04T16:00:26;5.80;99.90
41344;DHT22;27089;50.022;7.604;2023-03-04T16:02:53;5.80;99.90
41344;DHT22;27089;50.022;7.604;2023-03-04T16:05:20;5.80;99.90
41344;DHT22;27089;50.022;7.604;2023-03-04T16:07:48;5.80;99.90
41344;DHT22;27089;50.022;7.604;2023-03-04T16:10:20;5.80;99.90
41344;DHT22;27089;50.022;7.604;2023-03-04T16:12:49;5.80;99.90
41344;DHT22;27089;50.022;7.604;2023-03-04T16:15:19;5.80;99.90
41344;DHT22;27089;50.022;7.604;2023-03-04T16:17:46;5.80;99.90